sensor_id;sensor_type;location;lat;lon;timestamp;temperature;humidity
5743;DHT22;2896;53.500;10.020;2022-11-25T00:01:20;2.10;99.90
5743;DHT22;2896;53.500;10.020;2022-11-25T00:03:48;2.00;99.90
5743;DHT22;2896;53.500;10.020;2022-11-25T00:06:17;3.00;99.90
5743;DHT22;2896;53.500;10.020;2022-11-25T00:08:46;3.70;99.90
5743;DHT22;2896;53.500;10.020;2022-11-25T00:11:14;2.30;99.90
5743;DHT22;2896;53.500;10.020;2022-11-25T00:13:44;2.00;99.90
5743;DHT22;2896;53.500;10.020;2022-11-25T00:16:13;2.40;99.90
5743;DHT22;2896;53.500;10.020;2022-11-25T00:18:43;2.30;99.90
5743;DHT22;2896;53.500;10.020;2022-11-25T00:21:11;2.30;99.90
5743;DHT22;2896;53.500;10.020;2022-11-25T00:23:38;2.10;99.90
5743;DHT22;2896;53.500;10.020;2022-11-25T00:26:07;2.30;99.90
5743;DHT22;2896;53.500;10.020;2022-11-25T00:28:34;2.10;99.90
5743;DHT22;2896;53.500;10.020;2022-11-25T00:31:06;3.40;99.90
5743;DHT22;2896;53.500;10.020;2022-11-25T00:33:33;2.20;99.90
5743;DHT22;2896;53.500;10.020;2022-11-25T00:36:00;2.20;99.90
5743;DHT22;2896;53.500;10.020;2022-11-25T00:38:28;2.10;99.90
5743;DHT22;2896;53.500;10.020;2022-11-25T00:40:55;1.90;99.90
5743;DHT22;2896;53.500;10.020;2022-11-25T00:43:35;2.40;99.90
5743;DHT22;2896;53.500;10.020;2022-11-25T00:46:21;2.40;99.90
5743;DHT22;2896;53.500;10.020;2022-11-25T00:48:48;2.30;99.90
5743;DHT22;2896;53.500;10.020;2022-11-25T00:51:15;2.40;99.90
5743;DHT22;2896;53.500;10.020;2022-11-25T00:53:41;2.60;99.90
5743;DHT22;2896;53.500;10.020;2022-11-25T00:56:08;2.60;99.90
5743;DHT22;2896;53.500;10.020;2022-11-25T00:58:38;2.80;99.90
5743;DHT22;2896;53.500;10.020;2022-11-25T01:01:05;3.40;99.90
5743;DHT22;2896;53.500;10.020;2022-11-25T01:03:33;2.70;99.90
5743;DHT22;2896;53.500;10.020;2022-11-25T01:06:02;2.50;99.90
5743;DHT22;2896;53.500;10.020;2022-11-25T01:08:29;2.40;99.90
5743;DHT22;2896;53.500;10.020;2022-11-25T01:10:57;2.50;99.90
5743;DHT22;2896;53.500;10.020;2022-11-25T01:13:24;2.30;99.90
5743;DHT22;2896;53.500;10.020;2022-11-25T01:15:51;2.40;99.90
5743;DHT22;2896;53.500;10.020;2022-11-25T01:18:18;2.30;99.90
5743;DHT22;2896;53.500;10.020;2022-11-25T01:20:46;4.10;99.90
5743;DHT22;2896;53.500;10.020;2022-11-25T01:23:12;2.20;99.90
5743;DHT22;2896;53.500;10.020;2022-11-25T01:25:39;2.90;99.90
5743;DHT22;2896;53.500;10.020;2022-11-25T01:28:06;3.00;99.90
5743;DHT22;2896;53.500;10.020;2022-11-25T01:30:32;2.40;99.90
5743;DHT22;2896;53.500;10.020;2022-11-25T01:32:59;4.00;99.90
5743;DHT22;2896;53.500;10.020;2022-11-25T01:35:26;2.40;99.90
5743;DHT22;2896;53.500;10.020;2022-11-25T01:37:54;2.50;99.90
5743;DHT22;2896;53.500;10.020;2022-11-25T01:40:21;2.60;99.90
5743;DHT22;2896;53.500;10.020;2022-11-25T01:42:48;2.40;99.90
5743;DHT22;2896;53.500;10.020;2022-11-25T01:45:35;2.50;99.90
5743;DHT22;2896;53.500;10.020;2022-11-25T01:48:09;2.50;99.90
5743;DHT22;2896;53.500;10.020;2022-11-25T01:50:37;4.80;99.90
5743;DHT22;2896;53.500;10.020;2022-11-25T01:53:07;2.10;99.90
5743;DHT22;2896;53.500;10.020;2022-11-25T01:55:36;4.10;99.90
5743;DHT22;2896;53.500;10.020;2022-11-25T01:58:05;2.00;99.90
5743;DHT22;2896;53.500;10.020;2022-11-25T02:00:33;2.00;99.90
5743;DHT22;2896;53.500;10.020;2022-11-25T02:02:59;2.70;99.90
5743;DHT22;2896;53.500;10.020;2022-11-25T02:05:32;2.40;99.90
5743;DHT22;2896;53.500;10.020;2022-11-25T02:08:03;4.40;99.90
5743;DHT22;2896;53.500;10.020;2022-11-25T02:10:33;2.10;99.90
5743;DHT22;2896;53.500;10.020;2022-11-25T02:13:01;2.30;99.90
5743;DHT22;2896;53.500;10.020;2022-11-25T02:15:28;4.10;99.90
5743;DHT22;2896;53.500;10.020;2022-11-25T02:17:56;2.30;99.90
5743;DHT22;2896;53.500;10.020;2022-11-25T02:20:23;3.40;99.90
5743;DHT22;2896;53.500;10.020;2022-11-25T02:22:58;2.30;99.90
5743;DHT22;2896;53.500;10.020;2022-11-25T02:25:30;2.40;99.90
5743;DHT22;2896;53.500;10.020;2022-11-25T02:28:00;2.50;99.90
5743;DHT22;2896;53.500;10.020;2022-11-25T02:30:27;2.40;99.90
5743;DHT22;2896;53.500;10.020;2022-11-25T02:32:56;2.50;99.90
5743;DHT22;2896;53.500;10.020;2022-11-25T02:35:29;3.90;99.90
5743;DHT22;2896;53.500;10.020;2022-11-25T02:37:59;2.80;99.90
5743;DHT22;2896;53.500;10.020;2022-11-25T02:40:29;2.80;99.90
5743;DHT22;2896;53.500;10.020;2022-11-25T02:42:58;2.60;99.90
5743;DHT22;2896;53.500;10.020;2022-11-25T02:45:41;2.70;99.90
5743;DHT22;2896;53.500;10.020;2022-11-25T02:48:09;2.60;99.90
5743;DHT22;2896;53.500;10.020;2022-11-25T02:50:36;3.60;99.90
5743;DHT22;2896;53.500;10.020;2022-11-25T02:53:03;2.90;99.90
5743;DHT22;2896;53.500;10.020;2022-11-25T03:12:23;0.80;99.90
5743;DHT22;2896;53.500;10.020;2022-11-25T03:14:50;2.70;99.90
5743;DHT22;2896;53.500;10.020;2022-11-25T03:17:17;4.90;99.90
5743;DHT22;2896;53.500;10.020;2022-11-25T03:19:44;2.50;99.90
5743;DHT22;2896;53.500;10.020;2022-11-25T03:22:10;2.40;99.90
5743;DHT22;2896;53.500;10.020;2022-11-25T03:24:37;2.80;99.90
5743;DHT22;2896;53.500;10.020;2022-11-25T03:27:04;2.70;99.90
5743;DHT22;2896;53.500;10.020;2022-11-25T03:29:32;2.50;99.90
5743;DHT22;2896;53.500;10.020;2022-11-25T03:31:59;2.00;99.90
5743;DHT22;2896;53.500;10.020;2022-11-25T03:34:26;2.30;99.90
5743;DHT22;2896;53.500;10.020;2022-11-25T03:36:53;2.30;99.90
5743;DHT22;2896;53.500;10.020;2022-11-25T03:39:19;2.30;99.90
5743;DHT22;2896;53.500;10.020;2022-11-25T03:41:48;4.50;99.90
5743;DHT22;2896;53.500;10.020;2022-11-25T03:44:15;2.60;99.90
5743;DHT22;2896;53.500;10.020;2022-11-25T03:46:43;2.40;99.90
5743;DHT22;2896;53.500;10.020;2022-11-25T03:49:10;2.10;99.90
5743;DHT22;2896;53.500;10.020;2022-11-25T03:51:36;1.80;99.90
5743;DHT22;2896;53.500;10.020;2022-11-25T03:54:03;1.70;99.90
5743;DHT22;2896;53.500;10.020;2022-11-25T03:56:30;2.40;99.90
5743;DHT22;2896;53.500;10.020;2022-11-25T03:58:57;2.00;99.90
5743;DHT22;2896;53.500;10.020;2022-11-25T04:01:24;2.00;99.90
5743;DHT22;2896;53.500;10.020;2022-11-25T04:03:52;1.80;99.90
5743;DHT22;2896;53.500;10.020;2022-11-25T04:06:19;2.00;99.90
5743;DHT22;2896;53.500;10.020;2022-11-25T04:08:48;1.90;99.90
5743;DHT22;2896;53.500;10.020;2022-11-25T04:11:15;1.70;99.90
5743;DHT22;2896;53.500;10.020;2022-11-25T04:13:42;1.40;99.90
5743;DHT22;2896;53.500;10.020;2022-11-25T04:16:17;1.70;99.90
5743;DHT22;2896;53.500;10.020;2022-11-25T04:18:45;2.00;99.90
5743;DHT22;2896;53.500;10.020;2022-11-25T04:21:13;1.90;99.90
5743;DHT22;2896;53.500;10.020;2022-11-25T04:23:40;4.30;99.90
5743;DHT22;2896;53.500;10.020;2022-11-25T04:26:06;1.90;99.90
5743;DHT22;2896;53.500;10.020;2022-11-25T04:28:33;1.90;99.90
5743;DHT22;2896;53.500;10.020;2022-11-25T04:31:04;3.80;99.90
5743;DHT22;2896;53.500;10.020;2022-11-25T04:33:31;4.20;99.90
5743;DHT22;2896;53.500;10.020;2022-11-25T04:35:58;1.90;99.90
5743;DHT22;2896;53.500;10.020;2022-11-25T04:38:26;1.40;99.90
5743;DHT22;2896;53.500;10.020;2022-11-25T04:40:53;1.40;99.90
5743;DHT22;2896;53.500;10.020;2022-11-25T04:43:20;4.00;99.90
5743;DHT22;2896;53.500;10.020;2022-11-25T04:45:47;1.50;99.90
5743;DHT22;2896;53.500;10.020;2022-11-25T04:48:15;1.50;99.90
5743;DHT22;2896;53.500;10.020;2022-11-25T04:50:41;1.70;99.90
5743;DHT22;2896;53.500;10.020;2022-11-25T04:53:08;1.70;99.90
5743;DHT22;2896;53.500;10.020;2022-11-25T04:55:37;2.20;99.90
5743;DHT22;2896;53.500;10.020;2022-11-25T04:58:03;3.80;99.90
5743;DHT22;2896;53.500;10.020;2022-11-25T05:00:30;4.60;99.90
5743;DHT22;2896;53.500;10.020;2022-11-25T05:02:56;3.60;99.90
5743;DHT22;2896;53.500;10.020;2022-11-25T05:05:23;3.90;99.90
5743;DHT22;2896;53.500;10.020;2022-11-25T05:07:49;1.80;99.90
5743;DHT22;2896;53.500;10.020;2022-11-25T05:10:16;1.70;99.90
5743;DHT22;2896;53.500;10.020;2022-11-25T05:12:44;1.50;99.90
5743;DHT22;2896;53.500;10.020;2022-11-25T05:15:11;1.50;99.90
5743;DHT22;2896;53.500;10.020;2022-11-25T05:17:38;1.90;99.90
5743;DHT22;2896;53.500;10.020;2022-11-25T05:20:06;2.00;99.90
5743;DHT22;2896;53.500;10.020;2022-11-25T05:22:34;2.00;99.90
5743;DHT22;2896;53.500;10.020;2022-11-25T05:25:01;2.10;99.90
5743;DHT22;2896;53.500;10.020;2022-11-25T05:27:30;3.80;99.90
5743;DHT22;2896;53.500;10.020;2022-11-25T05:29:58;2.10;99.90
5743;DHT22;2896;53.500;10.020;2022-11-25T05:32:25;2.00;99.90
5743;DHT22;2896;53.500;10.020;2022-11-25T05:34:51;2.20;99.90
5743;DHT22;2896;53.500;10.020;2022-11-25T05:37:18;5.30;99.90
5743;DHT22;2896;53.500;10.020;2022-11-25T05:39:45;5.20;99.90
5743;DHT22;2896;53.500;10.020;2022-11-25T05:42:11;2.80;99.90
5743;DHT22;2896;53.500;10.020;2022-11-25T05:44:38;4.00;99.90
5743;DHT22;2896;53.500;10.020;2022-11-25T05:47:07;5.00;99.90
5743;DHT22;2896;53.500;10.020;2022-11-25T05:49:34;2.60;99.90
5743;DHT22;2896;53.500;10.020;2022-11-25T05:52:00;3.00;99.90
5743;DHT22;2896;53.500;10.020;2022-11-25T05:54:27;2.70;99.90
5743;DHT22;2896;53.500;10.020;2022-11-25T05:56:54;2.90;99.90
5743;DHT22;2896;53.500;10.020;2022-11-25T05:59:21;2.90;99.90
5743;DHT22;2896;53.500;10.020;2022-11-25T06:01:48;5.00;99.90
5743;DHT22;2896;53.500;10.020;2022-11-25T06:04:16;3.00;99.90
5743;DHT22;2896;53.500;10.020;2022-11-25T06:06:42;2.70;99.90
5743;DHT22;2896;53.500;10.020;2022-11-25T06:09:09;5.80;99.90
5743;DHT22;2896;53.500;10.020;2022-11-25T06:11:36;2.70;99.90
5743;DHT22;2896;53.500;10.020;2022-11-25T06:14:03;3.40;99.90
5743;DHT22;2896;53.500;10.020;2022-11-25T06:16:30;6.00;99.90
5743;DHT22;2896;53.500;10.020;2022-11-25T06:18:57;3.20;99.90
5743;DHT22;2896;53.500;10.020;2022-11-25T06:21:25;3.30;99.90
5743;DHT22;2896;53.500;10.020;2022-11-25T06:23:52;3.30;99.90
5743;DHT22;2896;53.500;10.020;2022-11-25T06:26:20;2.90;99.90
5743;DHT22;2896;53.500;10.020;2022-11-25T06:28:48;5.40;99.90
5743;DHT22;2896;53.500;10.020;2022-11-25T06:31:18;4.70;99.90
5743;DHT22;2896;53.500;10.020;2022-11-25T06:33:45;3.00;99.90
5743;DHT22;2896;53.500;10.020;2022-11-25T06:36:13;2.90;99.90
5743;DHT22;2896;53.500;10.020;2022-11-25T06:38:43;5.50;99.90
5743;DHT22;2896;53.500;10.020;2022-11-25T06:41:10;4.90;99.90
5743;DHT22;2896;53.500;10.020;2022-11-25T06:43:37;2.70;99.90
5743;DHT22;2896;53.500;10.020;2022-11-25T06:46:05;2.90;99.90
5743;DHT22;2896;53.500;10.020;2022-11-25T06:48:32;2.70;99.90
5743;DHT22;2896;53.500;10.020;2022-11-25T06:51:07;5.10;99.90
5743;DHT22;2896;53.500;10.020;2022-11-25T06:53:37;2.50;99.90
5743;DHT22;2896;53.500;10.020;2022-11-25T06:56:08;4.80;99.90
5743;DHT22;2896;53.500;10.020;2022-11-25T06:58:36;3.00;99.90
5743;DHT22;2896;53.500;10.020;2022-11-25T07:01:04;4.60;99.90
5743;DHT22;2896;53.500;10.020;2022-11-25T07:03:32;3.00;99.90
5743;DHT22;2896;53.500;10.020;2022-11-25T07:06:00;0.80;99.90
5743;DHT22;2896;53.500;10.020;2022-11-25T07:08:28;2.80;99.90
5743;DHT22;2896;53.500;10.020;2022-11-25T07:10:55;2.90;99.90
5743;DHT22;2896;53.500;10.020;2022-11-25T07:13:23;5.10;99.90
5743;DHT22;2896;53.500;10.020;2022-11-25T07:15:50;2.70;99.90
5743;DHT22;2896;53.500;10.020;2022-11-25T07:18:17;3.00;99.90
5743;DHT22;2896;53.500;10.020;2022-11-25T07:20:44;3.30;99.90
5743;DHT22;2896;53.500;10.020;2022-11-25T07:23:10;2.80;99.90
5743;DHT22;2896;53.500;10.020;2022-11-25T07:25:37;3.20;99.90
5743;DHT22;2896;53.500;10.020;2022-11-25T07:28:04;2.90;99.90
5743;DHT22;2896;53.500;10.020;2022-11-25T07:30:32;5.70;99.90
5743;DHT22;2896;53.500;10.020;2022-11-25T07:32:59;5.90;99.90
5743;DHT22;2896;53.500;10.020;2022-11-25T07:35:26;3.50;99.90
5743;DHT22;2896;53.500;10.020;2022-11-25T07:37:52;2.70;99.90
5743;DHT22;2896;53.500;10.020;2022-11-25T07:40:19;3.60;99.90
5743;DHT22;2896;53.500;10.020;2022-11-25T07:42:46;3.50;99.90
5743;DHT22;2896;53.500;10.020;2022-11-25T07:45:15;3.60;99.90
5743;DHT22;2896;53.500;10.020;2022-11-25T07:47:44;3.80;99.90
5743;DHT22;2896;53.500;10.020;2022-11-25T07:50:10;3.50;99.90
5743;DHT22;2896;53.500;10.020;2022-11-25T07:52:37;3.70;99.90
5743;DHT22;2896;53.500;10.020;2022-11-25T07:55:05;3.50;99.90
5743;DHT22;2896;53.500;10.020;2022-11-25T07:57:32;3.60;99.90
5743;DHT22;2896;53.500;10.020;2022-11-25T07:59:59;3.70;99.90
5743;DHT22;2896;53.500;10.020;2022-11-25T08:02:26;4.10;99.90
5743;DHT22;2896;53.500;10.020;2022-11-25T08:04:54;5.70;99.90
5743;DHT22;2896;53.500;10.020;2022-11-25T08:07:20;3.70;99.90
5743;DHT22;2896;53.500;10.020;2022-11-25T08:09:47;3.60;99.90
5743;DHT22;2896;53.500;10.020;2022-11-25T08:12:15;3.80;99.90
5743;DHT22;2896;53.500;10.020;2022-11-25T08:14:42;5.60;99.90
5743;DHT22;2896;53.500;10.020;2022-11-25T08:17:09;4.20;99.90
5743;DHT22;2896;53.500;10.020;2022-11-25T08:19:36;4.00;99.90
5743;DHT22;2896;53.500;10.020;2022-11-25T08:22:06;4.10;99.90
5743;DHT22;2896;53.500;10.020;2022-11-25T08:24:33;4.20;99.90
5743;DHT22;2896;53.500;10.020;2022-11-25T08:26:59;3.80;99.90
5743;DHT22;2896;53.500;10.020;2022-11-25T08:29:26;3.70;99.90
5743;DHT22;2896;53.500;10.020;2022-11-25T08:31:53;3.10;99.90
5743;DHT22;2896;53.500;10.020;2022-11-25T08:34:28;4.10;99.90
5743;DHT22;2896;53.500;10.020;2022-11-25T08:36:59;6.20;99.90
5743;DHT22;2896;53.500;10.020;2022-11-25T08:39:27;4.00;99.90
5743;DHT22;2896;53.500;10.020;2022-11-25T08:41:55;4.20;99.90
5743;DHT22;2896;53.500;10.020;2022-11-25T08:44:22;4.30;99.90
5743;DHT22;2896;53.500;10.020;2022-11-25T08:46:52;4.20;99.90
5743;DHT22;2896;53.500;10.020;2022-11-25T08:49:19;4.40;99.90
5743;DHT22;2896;53.500;10.020;2022-11-25T08:51:47;5.60;99.90
5743;DHT22;2896;53.500;10.020;2022-11-25T08:54:15;2.30;99.90
5743;DHT22;2896;53.500;10.020;2022-11-25T08:56:43;4.50;99.90
5743;DHT22;2896;53.500;10.020;2022-11-25T08:59:10;4.30;99.90
5743;DHT22;2896;53.500;10.020;2022-11-25T09:01:37;4.20;99.90
5743;DHT22;2896;53.500;10.020;2022-11-25T09:04:10;4.10;99.90
5743;DHT22;2896;53.500;10.020;2022-11-25T09:06:40;4.90;99.90
5743;DHT22;2896;53.500;10.020;2022-11-25T09:09:06;4.40;99.90
5743;DHT22;2896;53.500;10.020;2022-11-25T09:11:33;4.40;99.90
5743;DHT22;2896;53.500;10.020;2022-11-25T09:14:01;4.20;99.90
5743;DHT22;2896;53.500;10.020;2022-11-25T09:16:28;7.00;99.90
5743;DHT22;2896;53.500;10.020;2022-11-25T09:18:54;4.70;99.90
5743;DHT22;2896;53.500;10.020;2022-11-25T09:21:21;4.60;99.90
5743;DHT22;2896;53.500;10.020;2022-11-25T09:23:49;4.60;99.90
5743;DHT22;2896;53.500;10.020;2022-11-25T09:26:22;4.70;99.90
5743;DHT22;2896;53.500;10.020;2022-11-25T09:28:49;4.90;99.90
5743;DHT22;2896;53.500;10.020;2022-11-25T09:31:39;4.10;99.90
5743;DHT22;2896;53.500;10.020;2022-11-25T09:34:09;5.00;99.90
5743;DHT22;2896;53.500;10.020;2022-11-25T09:36:39;4.70;99.90
5743;DHT22;2896;53.500;10.020;2022-11-25T09:39:05;2.40;99.90
5743;DHT22;2896;53.500;10.020;2022-11-25T09:41:48;4.20;99.90
5743;DHT22;2896;53.500;10.020;2022-11-25T09:44:46;4.80;99.90
5743;DHT22;2896;53.500;10.020;2022-11-25T09:47:41;4.80;99.90
5743;DHT22;2896;53.500;10.020;2022-11-25T09:50:17;4.80;99.90
5743;DHT22;2896;53.500;10.020;2022-11-25T09:52:51;4.90;99.90
5743;DHT22;2896;53.500;10.020;2022-11-25T09:55:22;4.80;99.90
5743;DHT22;2896;53.500;10.020;2022-11-25T09:58:00;4.80;99.90
5743;DHT22;2896;53.500;10.020;2022-11-25T10:00:35;4.80;99.90
5743;DHT22;2896;53.500;10.020;2022-11-25T10:03:08;4.50;99.90
5743;DHT22;2896;53.500;10.020;2022-11-25T10:05:41;6.80;99.90
5743;DHT22;2896;53.500;10.020;2022-11-25T10:08:11;4.70;99.90
5743;DHT22;2896;53.500;10.020;2022-11-25T10:10:43;4.70;99.90
5743;DHT22;2896;53.500;10.020;2022-11-25T10:13:16;4.90;99.90
5743;DHT22;2896;53.500;10.020;2022-11-25T10:15:47;4.80;99.90
5743;DHT22;2896;53.500;10.020;2022-11-25T10:18:20;5.10;99.90
5743;DHT22;2896;53.500;10.020;2022-11-25T10:20:49;4.90;99.90
5743;DHT22;2896;53.500;10.020;2022-11-25T10:23:21;6.80;99.90
5743;DHT22;2896;53.500;10.020;2022-11-25T10:25:52;5.10;99.90
5743;DHT22;2896;53.500;10.020;2022-11-25T10:28:22;3.40;99.90
5743;DHT22;2896;53.500;10.020;2022-11-25T10:30:53;5.10;99.90
5743;DHT22;2896;53.500;10.020;2022-11-25T10:33:27;6.10;99.90
5743;DHT22;2896;53.500;10.020;2022-11-25T10:35:57;7.50;99.90
5743;DHT22;2896;53.500;10.020;2022-11-25T10:38:30;5.30;99.90
5743;DHT22;2896;53.500;10.020;2022-11-25T10:41:03;5.40;99.90
5743;DHT22;2896;53.500;10.020;2022-11-25T10:43:31;5.40;99.90
5743;DHT22;2896;53.500;10.020;2022-11-25T10:46:03;6.90;99.90
5743;DHT22;2896;53.500;10.020;2022-11-25T10:48:49;5.30;99.90
5743;DHT22;2896;53.500;10.020;2022-11-25T10:51:36;5.40;99.90
5743;DHT22;2896;53.500;10.020;2022-11-25T10:54:15;5.40;99.90
5743;DHT22;2896;53.500;10.020;2022-11-25T10:56:48;5.40;99.90
5743;DHT22;2896;53.500;10.020;2022-11-25T10:59:24;5.30;99.90
5743;DHT22;2896;53.500;10.020;2022-11-25T11:01:52;5.50;99.90
5743;DHT22;2896;53.500;10.020;2022-11-25T11:04:20;5.50;99.90
5743;DHT22;2896;53.500;10.020;2022-11-25T11:06:48;5.50;99.90
5743;DHT22;2896;53.500;10.020;2022-11-25T11:09:39;5.70;99.90
5743;DHT22;2896;53.500;10.020;2022-11-25T11:12:13;5.60;99.90
5743;DHT22;2896;53.500;10.020;2022-11-25T11:14:42;5.60;99.90
5743;DHT22;2896;53.500;10.020;2022-11-25T11:17:25;5.70;99.90
5743;DHT22;2896;53.500;10.020;2022-11-25T11:20:14;5.60;99.90
5743;DHT22;2896;53.500;10.020;2022-11-25T11:22:46;5.70;99.90
5743;DHT22;2896;53.500;10.020;2022-11-25T11:25:25;5.80;99.90
5743;DHT22;2896;53.500;10.020;2022-11-25T11:27:55;6.30;99.90
5743;DHT22;2896;53.500;10.020;2022-11-25T11:30:23;5.70;99.90
5743;DHT22;2896;53.500;10.020;2022-11-25T11:32:59;5.80;99.90
5743;DHT22;2896;53.500;10.020;2022-11-25T11:35:36;5.90;99.90
5743;DHT22;2896;53.500;10.020;2022-11-25T11:38:18;6.00;99.90
5743;DHT22;2896;53.500;10.020;2022-11-25T11:40:52;6.00;99.90
5743;DHT22;2896;53.500;10.020;2022-11-25T11:43:38;6.10;99.90
5743;DHT22;2896;53.500;10.020;2022-11-25T11:46:17;6.00;99.90
5743;DHT22;2896;53.500;10.020;2022-11-25T11:48:56;6.60;99.90
5743;DHT22;2896;53.500;10.020;2022-11-25T11:51:31;6.20;99.90
5743;DHT22;2896;53.500;10.020;2022-11-25T11:54:04;6.20;99.90
5743;DHT22;2896;53.500;10.020;2022-11-25T11:56:36;6.20;99.90
5743;DHT22;2896;53.500;10.020;2022-11-25T11:59:22;7.90;99.90
5743;DHT22;2896;53.500;10.020;2022-11-25T12:02:09;6.30;99.90
5743;DHT22;2896;53.500;10.020;2022-11-25T12:04:40;6.50;99.90
5743;DHT22;2896;53.500;10.020;2022-11-25T12:07:16;6.30;99.90
5743;DHT22;2896;53.500;10.020;2022-11-25T12:09:48;6.40;99.90
5743;DHT22;2896;53.500;10.020;2022-11-25T12:12:18;6.30;99.90
5743;DHT22;2896;53.500;10.020;2022-11-25T12:14:48;7.30;99.90
5743;DHT22;2896;53.500;10.020;2022-11-25T12:17:18;6.40;99.90
5743;DHT22;2896;53.500;10.020;2022-11-25T12:19:52;6.50;99.90
5743;DHT22;2896;53.500;10.020;2022-11-25T12:22:25;6.20;99.90
5743;DHT22;2896;53.500;10.020;2022-11-25T12:25:00;6.50;99.90
5743;DHT22;2896;53.500;10.020;2022-11-25T12:27:32;6.40;99.90
5743;DHT22;2896;53.500;10.020;2022-11-25T12:30:04;6.50;99.90
5743;DHT22;2896;53.500;10.020;2022-11-25T12:32:52;6.50;99.90
5743;DHT22;2896;53.500;10.020;2022-11-25T12:35:30;6.70;99.90
5743;DHT22;2896;53.500;10.020;2022-11-25T12:38:07;6.70;99.90
5743;DHT22;2896;53.500;10.020;2022-11-25T12:40:40;6.50;99.90
5743;DHT22;2896;53.500;10.020;2022-11-25T12:43:24;6.60;99.90
5743;DHT22;2896;53.500;10.020;2022-11-25T12:46:03;6.60;99.90
5743;DHT22;2896;53.500;10.020;2022-11-25T12:48:31;6.70;99.90
5743;DHT22;2896;53.500;10.020;2022-11-25T12:51:01;6.80;99.90
5743;DHT22;2896;53.500;10.020;2022-11-25T12:53:41;6.90;99.90
5743;DHT22;2896;53.500;10.020;2022-11-25T12:56:17;7.00;99.90
5743;DHT22;2896;53.500;10.020;2022-11-25T12:58:54;7.00;99.90
5743;DHT22;2896;53.500;10.020;2022-11-25T13:01:55;7.00;99.90
5743;DHT22;2896;53.500;10.020;2022-11-25T13:04:42;7.00;99.90
5743;DHT22;2896;53.500;10.020;2022-11-25T13:07:23;7.10;99.90
5743;DHT22;2896;53.500;10.020;2022-11-25T13:10:16;7.70;99.90
5743;DHT22;2896;53.500;10.020;2022-11-25T13:12:58;6.90;99.90
5743;DHT22;2896;53.500;10.020;2022-11-25T13:15:31;7.00;99.90
5743;DHT22;2896;53.500;10.020;2022-11-25T13:18:06;7.10;99.90
5743;DHT22;2896;53.500;10.020;2022-11-25T13:20:45;7.20;99.90
5743;DHT22;2896;53.500;10.020;2022-11-25T13:23:27;7.00;99.90
5743;DHT22;2896;53.500;10.020;2022-11-25T13:28:58;7.20;99.90
5743;DHT22;2896;53.500;10.020;2022-11-25T13:31:30;7.00;99.90
5743;DHT22;2896;53.500;10.020;2022-11-25T13:34:08;7.10;99.90
5743;DHT22;2896;53.500;10.020;2022-11-25T13:36:50;7.00;99.90
5743;DHT22;2896;53.500;10.020;2022-11-25T13:39:19;7.20;99.90
5743;DHT22;2896;53.500;10.020;2022-11-25T13:41:59;7.20;99.90
5743;DHT22;2896;53.500;10.020;2022-11-25T13:44:29;7.10;99.90
5743;DHT22;2896;53.500;10.020;2022-11-25T13:49:50;7.20;99.90
5743;DHT22;2896;53.500;10.020;2022-11-25T13:52:30;7.30;99.90
5743;DHT22;2896;53.500;10.020;2022-11-25T13:54:59;7.40;99.90
5743;DHT22;2896;53.500;10.020;2022-11-25T13:57:30;7.40;99.90
5743;DHT22;2896;53.500;10.020;2022-11-25T14:00:00;7.30;99.90
5743;DHT22;2896;53.500;10.020;2022-11-25T14:02:37;7.40;99.90
5743;DHT22;2896;53.500;10.020;2022-11-25T14:08:35;7.60;99.90
5743;DHT22;2896;53.500;10.020;2022-11-25T14:14:23;7.70;99.90
5743;DHT22;2896;53.500;10.020;2022-11-25T14:17:09;7.70;99.90
5743;DHT22;2896;53.500;10.020;2022-11-25T14:23:02;7.80;99.90
5743;DHT22;2896;53.500;10.020;2022-11-25T14:25:43;7.90;99.90
5743;DHT22;2896;53.500;10.020;2022-11-25T14:28:20;7.70;99.90
5743;DHT22;2896;53.500;10.020;2022-11-25T14:30:52;7.60;99.90
5743;DHT22;2896;53.500;10.020;2022-11-25T14:33:25;7.70;99.90
5743;DHT22;2896;53.500;10.020;2022-11-25T14:36:00;7.70;99.90
5743;DHT22;2896;53.500;10.020;2022-11-25T14:38:33;7.80;99.90
5743;DHT22;2896;53.500;10.020;2022-11-25T14:41:06;7.70;99.90
5743;DHT22;2896;53.500;10.020;2022-11-25T14:43:38;7.70;99.90
5743;DHT22;2896;53.500;10.020;2022-11-25T14:46:11;7.70;99.90
5743;DHT22;2896;53.500;10.020;2022-11-25T14:48:41;7.60;99.90
5743;DHT22;2896;53.500;10.020;2022-11-25T14:51:10;8.90;99.90
5743;DHT22;2896;53.500;10.020;2022-11-25T14:53:40;7.60;99.90
5743;DHT22;2896;53.500;10.020;2022-11-25T14:56:08;6.50;99.90
5743;DHT22;2896;53.500;10.020;2022-11-25T14:58:39;7.60;99.90
5743;DHT22;2896;53.500;10.020;2022-11-25T15:01:16;9.80;99.90
5743;DHT22;2896;53.500;10.020;2022-11-25T15:03:47;7.60;99.90
5743;DHT22;2896;53.500;10.020;2022-11-25T15:06:15;7.60;99.90
5743;DHT22;2896;53.500;10.020;2022-11-25T15:08:45;7.80;99.90
5743;DHT22;2896;53.500;10.020;2022-11-25T15:11:22;9.00;99.90
5743;DHT22;2896;53.500;10.020;2022-11-25T15:13:53;7.60;99.90
5743;DHT22;2896;53.500;10.020;2022-11-25T15:16:28;9.40;99.90
5743;DHT22;2896;53.500;10.020;2022-11-25T15:18:59;9.80;99.90
5743;DHT22;2896;53.500;10.020;2022-11-25T15:21:28;7.40;99.90
5743;DHT22;2896;53.500;10.020;2022-11-25T15:23:56;7.50;99.90
5743;DHT22;2896;53.500;10.020;2022-11-25T15:26:25;7.30;99.90
5743;DHT22;2896;53.500;10.020;2022-11-25T15:28:53;7.50;99.90
5743;DHT22;2896;53.500;10.020;2022-11-25T15:31:25;7.30;99.90
5743;DHT22;2896;53.500;10.020;2022-11-25T15:33:55;7.40;99.90
5743;DHT22;2896;53.500;10.020;2022-11-25T15:36:24;7.30;99.90
5743;DHT22;2896;53.500;10.020;2022-11-25T15:38:51;7.40;99.90
5743;DHT22;2896;53.500;10.020;2022-11-25T15:41:24;7.40;99.90
5743;DHT22;2896;53.500;10.020;2022-11-25T15:43:55;7.40;99.90
5743;DHT22;2896;53.500;10.020;2022-11-25T15:46:24;7.30;99.90
5743;DHT22;2896;53.500;10.020;2022-11-25T15:48:54;7.30;99.90
5743;DHT22;2896;53.500;10.020;2022-11-25T15:51:30;7.40;99.90
5743;DHT22;2896;53.500;10.020;2022-11-25T15:54:01;7.40;99.90
5743;DHT22;2896;53.500;10.020;2022-11-25T15:56:29;7.20;99.90
5743;DHT22;2896;53.500;10.020;2022-11-25T15:58:57;9.20;99.90
5743;DHT22;2896;53.500;10.020;2022-11-25T16:01:27;7.20;99.90
5743;DHT22;2896;53.500;10.020;2022-11-25T16:04:08;7.20;99.90
5743;DHT22;2896;53.500;10.020;2022-11-25T16:06:50;7.40;99.90
5743;DHT22;2896;53.500;10.020;2022-11-25T16:09:19;7.40;99.90
5743;DHT22;2896;53.500;10.020;2022-11-25T16:11:46;7.40;99.90
5743;DHT22;2896;53.500;10.020;2022-11-25T16:14:17;7.30;99.90
5743;DHT22;2896;53.500;10.020;2022-11-25T16:16:44;7.40;99.90
5743;DHT22;2896;53.500;10.020;2022-11-25T16:19:16;7.20;99.90
5743;DHT22;2896;53.500;10.020;2022-11-25T16:21:58;8.00;99.90
5743;DHT22;2896;53.500;10.020;2022-11-25T16:24:37;7.30;99.90
5743;DHT22;2896;53.500;10.020;2022-11-25T16:27:12;7.30;99.90
5743;DHT22;2896;53.500;10.020;2022-11-25T16:29:47;7.40;99.90
5743;DHT22;2896;53.500;10.020;2022-11-25T16:32:16;7.30;99.90
5743;DHT22;2896;53.500;10.020;2022-11-25T16:34:44;7.20;99.90
5743;DHT22;2896;53.500;10.020;2022-11-25T16:37:12;7.40;99.90
5743;DHT22;2896;53.500;10.020;2022-11-25T16:39:39;7.40;99.90
5743;DHT22;2896;53.500;10.020;2022-11-25T16:42:06;7.20;99.90
5743;DHT22;2896;53.500;10.020;2022-11-25T16:44:34;7.30;99.90
5743;DHT22;2896;53.500;10.020;2022-11-25T16:47:02;7.40;99.90
5743;DHT22;2896;53.500;10.020;2022-11-25T16:49:30;7.30;99.90
5743;DHT22;2896;53.500;10.020;2022-11-25T16:51:57;7.40;99.90
5743;DHT22;2896;53.500;10.020;2022-11-25T16:54:25;7.30;99.90
5743;DHT22;2896;53.500;10.020;2022-11-25T16:56:53;7.40;99.90